Time;durP1;ratioP1;P1;durP2;ratioP2;P2;SDS_P1;SDS_P2;PMS_P1;PMS_P2;Temp;Humidity;BMP_temperature;BMP_pressure;BME280_temperature;BME280_humidity;BME280_pressure;Samples;Min_cycle;Max_cycle;Signal;HPM_P1;HPM_P2
2021/09/30 00:00:54;;;;;;;1.40;1.30;;;15.90;99.90;;;;;;5144829;27;20231;-76
2021/09/30 00:03:21;;;;;;;1.55;1.45;;;15.90;99.90;;;;;;5139180;27;20271;-75
2021/09/30 00:05:48;;;;;;;1.52;1.42;;;15.80;99.90;;;;;;5138678;27;20647;-76
2021/09/30 00:08:16;;;;;;;1.80;1.60;;;15.80;99.90;;;;;;5135619;27;20219;-75
2021/09/30 00:10:52;;;;;;;1.60;1.50;;;15.80;99.90;;;;;;5142714;27;20215;-74
2021/09/30 00:13:36;;;;;;;1.48;1.38;;;15.80;99.90;;;;;;5139442;27;20215;-77
2021/09/30 00:16:23;;;;;;;1.50;1.40;;;15.70;99.90;;;;;;5141164;27;20215;-76
2021/09/30 00:35:35;;;;;;;1.48;1.38;;;15.40;99.90;;;;;;5113269;27;20235;-76
2021/09/30 00:46:28;;;;;;;1.10;1.00;;;15.30;99.90;;;;;;5140080;27;20254;-76
2021/09/30 00:49:03;;;;;;;1.23;1.13;;;15.40;99.90;;;;;;5147522;27;20278;-76
2021/09/30 00:51:36;;;;;;;1.00;1.00;;;15.30;99.90;;;;;;5137342;27;20235;-76
2021/09/30 01:20:19;;;;;;;1.05;1.05;;;15.00;99.90;;;;;;5141880;27;20293;-78
2021/09/30 02:18:50;;;;;;;1.17;1.17;;;14.70;99.90;;;;;;5089469;28;20641;-75
2021/09/30 02:24:27;;;;;;;1.17;1.17;;;14.70;99.90;;;;;;5070446;28;20591;-75
2021/09/30 03:00:16;;;;;;;1.10;1.10;;;14.50;99.90;;;;;;5084101;28;20240;-75
2021/09/30 03:02:51;;;;;;;1.52;1.20;;;14.40;99.90;;;;;;5077860;28;20229;-75
2021/09/30 03:05:22;;;;;;;1.35;1.25;;;14.40;99.90;;;;;;5081424;28;20274;-75
2021/09/30 03:07:53;;;;;;;1.10;1.02;;;14.40;99.90;;;;;;5081362;28;20213;-75
2021/09/30 03:10:21;;;;;;;1.20;1.20;;;14.40;99.90;;;;;;5084752;28;20312;-75
2021/09/30 03:12:50;;;;;;;1.08;1.08;;;14.40;99.90;;;;;;5078073;28;20234;-75
2021/09/30 03:15:29;;;;;;;0.98;0.98;;;14.40;99.90;;;;;;5082774;28;20233;-75
2021/09/30 03:18:12;;;;;;;0.90;0.90;;;14.40;99.90;;;;;;5083042;28;20233;-75
2021/09/30 03:20:48;;;;;;;1.30;1.20;;;14.50;99.90;;;;;;5085303;28;20239;-75
2021/09/30 03:23:19;;;;;;;1.48;1.38;;;14.50;99.90;;;;;;5083157;28;20228;-75
2021/09/30 03:25:48;;;;;;;1.65;1.23;;;14.50;99.90;;;;;;5086794;28;20224;-74
2021/09/30 03:28:18;;;;;;;1.42;1.33;;;14.40;99.90;;;;;;5090634;28;20270;-75
2021/09/30 03:30:46;;;;;;;0.95;0.95;;;14.40;99.90;;;;;;5084389;28;20270;-75
2021/09/30 03:33:14;;;;;;;1.00;1.00;;;14.40;99.90;;;;;;5086220;28;20731;-75
2021/09/30 03:35:41;;;;;;;1.02;1.02;;;14.50;99.90;;;;;;5089794;28;20273;-74
2021/09/30 03:38:10;;;;;;;1.10;1.10;;;14.50;99.90;;;;;;5087427;28;20216;-76
2021/09/30 03:40:39;;;;;;;0.98;0.98;;;14.50;99.90;;;;;;5078818;28;20233;-75
2021/09/30 03:43:08;;;;;;;1.17;1.17;;;14.50;99.90;;;;;;5089797;28;20212;-75
2021/09/30 03:45:35;;;;;;;1.20;1.08;;;14.50;99.90;;;;;;5087626;28;20703;-74
2021/09/30 03:48:03;;;;;;;1.20;1.15;;;14.50;99.90;;;;;;5091682;28;20220;-75
2021/09/30 03:50:32;;;;;;;1.27;1.17;;;14.50;99.90;;;;;;5054027;28;20225;-75
2021/09/30 03:53:04;;;;;;;1.50;1.40;;;14.40;99.90;;;;;;5083917;28;20299;-75
2021/09/30 03:55:41;;;;;;;1.40;1.30;;;14.30;99.90;;;;;;5091221;28;20221;-75
2021/09/30 04:00:54;;;;;;;1.00;1.00;;;14.20;99.90;;;;;;5050690;28;20594;-74
2021/09/30 04:03:21;;;;;;;1.20;1.20;;;14.20;99.90;;;;;;5085816;28;20635;-75
2021/09/30 04:05:48;;;;;;;1.38;1.30;;;14.20;99.90;;;;;;5084413;28;20220;-75
2021/09/30 04:08:15;;;;;;;0.85;0.85;;;14.10;99.90;;;;;;5087202;28;20274;-74
2021/09/30 04:10:42;;;;;;;0.90;0.90;;;14.10;99.90;;;;;;5086369;28;22895;-75
2021/09/30 04:13:10;;;;;;;1.30;1.20;;;14.10;99.90;;;;;;5082419;28;20248;-75
2021/09/30 04:15:37;;;;;;;1.00;1.00;;;14.10;99.90;;;;;;5092189;28;20400;-75
2021/09/30 04:18:04;;;;;;;1.27;1.20;;;14.10;99.90;;;;;;5089715;28;20274;-75
2021/09/30 04:20:31;;;;;;;1.00;1.00;;;14.10;99.90;;;;;;5091948;28;20225;-74
2021/09/30 04:23:00;;;;;;;1.00;1.00;;;14.10;99.90;;;;;;5095981;28;20228;-75
2021/09/30 04:25:27;;;;;;;1.10;1.10;;;14.10;99.90;;;;;;5090372;28;20228;-74
2021/09/30 04:27:54;;;;;;;1.23;1.23;;;14.10;99.90;;;;;;5094535;28;20221;-75
2021/09/30 04:30:22;;;;;;;1.45;1.35;;;14.00;99.90;;;;;;5085718;28;20756;-75
2021/09/30 04:32:49;;;;;;;1.77;1.30;;;14.00;99.90;;;;;;5089157;28;20753;-75
2021/09/30 04:35:16;;;;;;;1.00;1.00;;;13.90;99.90;;;;;;5097255;28;20230;-75
2021/09/30 04:37:43;;;;;;;1.13;1.13;;;13.90;99.90;;;;;;5084900;28;20716;-73
2021/09/30 04:40:12;;;;;;;1.13;1.10;;;13.90;99.90;;;;;;5084833;28;20216;-74
2021/09/30 04:42:39;;;;;;;0.90;0.90;;;13.90;99.90;;;;;;5088252;28;20221;-75
2021/09/30 04:45:07;;;;;;;0.70;0.70;;;13.90;99.90;;;;;;5086251;28;20225;-75
2021/09/30 04:47:36;;;;;;;0.93;0.93;;;13.90;99.90;;;;;;5087714;28;20271;-74
2021/09/30 04:50:03;;;;;;;0.90;0.90;;;13.90;99.90;;;;;;5084813;28;20212;-75
2021/09/30 04:52:30;;;;;;;0.90;0.90;;;13.90;99.90;;;;;;5061552;28;20611;-75
2021/09/30 04:54:57;;;;;;;0.90;0.90;;;13.90;99.90;;;;;;5093136;28;20221;-75
2021/09/30 04:57:24;;;;;;;0.90;0.90;;;13.90;99.90;;;;;;5090347;28;20263;-75
2021/09/30 04:59:51;;;;;;;2.35;0.90;;;13.80;99.90;;;;;;5086555;28;20216;-74
2021/09/30 05:02:18;;;;;;;1.00;1.00;;;13.80;99.90;;;;;;5090925;28;20273;-75
2021/09/30 05:04:46;;;;;;;0.85;0.85;;;13.80;99.90;;;;;;5081532;28;20221;-76
2021/09/30 05:07:13;;;;;;;1.40;0.90;;;13.80;99.90;;;;;;5092014;28;20707;-75
2021/09/30 05:09:40;;;;;;;0.90;0.90;;;13.80;99.90;;;;;;5088100;28;20472;-75
2021/09/30 05:12:14;;;;;;;0.90;0.90;;;13.80;99.90;;;;;;5084989;28;20707;-75
2021/09/30 05:14:41;;;;;;;1.00;1.00;;;13.70;99.90;;;;;;5085781;28;20217;-75
2021/09/30 05:17:08;;;;;;;1.00;1.00;;;13.70;99.90;;;;;;5089552;28;20259;-75
2021/09/30 05:19:35;;;;;;;0.90;0.90;;;13.70;99.90;;;;;;5088882;28;20285;-75
2021/09/30 05:22:04;;;;;;;1.77;0.93;;;13.70;99.90;;;;;;5092036;28;20236;-75
2021/09/30 05:24:31;;;;;;;0.80;0.80;;;13.70;99.90;;;;;;5084810;28;20231;-74
2021/09/30 05:26:58;;;;;;;0.90;0.90;;;13.70;99.90;;;;;;5089215;28;20229;-75
2021/09/30 05:29:25;;;;;;;1.10;1.10;;;13.80;99.90;;;;;;5094808;28;20234;-75
2021/09/30 05:31:52;;;;;;;1.00;1.00;;;13.80;99.90;;;;;;5087958;28;20226;-74
2021/09/30 05:34:19;;;;;;;0.95;0.95;;;13.80;99.90;;;;;;5091490;28;20217;-75
2021/09/30 05:36:46;;;;;;;0.90;0.90;;;13.90;99.90;;;;;;5091187;28;20233;-74
2021/09/30 05:39:15;;;;;;;1.25;1.20;;;13.90;99.90;;;;;;5087318;28;20304;-75
2021/09/30 05:41:42;;;;;;;1.00;1.00;;;13.90;99.90;;;;;;5087224;28;20278;-75
2021/09/30 05:44:10;;;;;;;0.93;0.93;;;13.90;99.90;;;;;;5089064;28;20240;-74
2021/09/30 05:46:42;;;;;;;1.20;1.08;;;13.90;99.90;;;;;;5094228;28;20246;-75
2021/09/30 05:49:10;;;;;;;1.00;1.00;;;13.90;99.90;;;;;;5087857;28;20304;-75
2021/09/30 05:51:37;;;;;;;0.93;0.93;;;14.00;99.90;;;;;;5085913;28;20224;-76
2021/09/30 05:54:04;;;;;;;1.02;0.98;;;14.00;99.90;;;;;;5083635;28;20686;-75
2021/09/30 05:56:33;;;;;;;1.42;1.33;;;14.10;99.90;;;;;;5090032;28;20214;-75
2021/09/30 05:59:00;;;;;;;1.70;1.27;;;14.20;99.90;;;;;;5082743;28;20204;-75
2021/09/30 06:01:56;;;;;;;1.02;1.00;;;14.50;99.90;;;;;;5090436;28;20237;-74
2021/09/30 06:10:11;;;;;;;1.20;1.10;;;14.70;99.90;;;;;;5073241;28;20635;-75
2021/09/30 06:12:41;;;;;;;1.67;0.90;;;14.70;99.90;;;;;;5081207;28;20689;-75
2021/09/30 06:15:14;;;;;;;1.13;1.13;;;14.70;99.90;;;;;;5085982;28;20213;-75
2021/09/30 06:17:44;;;;;;;1.30;1.20;;;15.10;99.90;;;;;;5091073;28;20678;-74
2021/09/30 06:20:12;;;;;;;1.20;1.10;;;15.80;99.90;;;;;;5087522;28;20304;-75
2021/09/30 06:22:39;;;;;;;1.20;1.10;;;16.50;99.90;;;;;;5087485;28;20572;-74
2021/09/30 06:25:07;;;;;;;1.27;1.25;;;17.10;99.90;;;;;;5092860;28;20532;-75
2021/09/30 06:27:34;;;;;;;1.20;1.05;;;17.30;99.90;;;;;;5092007;28;20224;-75
2021/09/30 06:30:05;;;;;;;1.67;1.27;;;17.10;99.90;;;;;;5087661;28;20213;-75
2021/09/30 06:32:32;;;;;;;1.42;1.33;;;16.80;99.90;;;;;;5081818;28;20228;-75
2021/09/30 06:34:59;;;;;;;1.23;1.13;;;16.50;99.90;;;;;;5089574;28;20221;-74
2021/09/30 06:37:26;;;;;;;1.27;1.20;;;16.40;99.90;;;;;;5088507;28;20271;-74
2021/09/30 06:39:54;;;;;;;1.30;1.20;;;16.30;99.90;;;;;;5084409;28;20228;-74
2021/09/30 06:42:21;;;;;;;1.30;1.20;;;16.30;99.90;;;;;;5076618;28;20707;-75
2021/09/30 06:44:49;;;;;;;1.00;1.00;;;16.20;99.90;;;;;;5082914;28;20232;-77
2021/09/30 06:47:17;;;;;;;1.40;1.30;;;16.20;99.90;;;;;;5081827;28;20221;-75
2021/09/30 06:49:44;;;;;;;1.30;1.20;;;16.50;99.90;;;;;;5087246;28;20221;-76
2021/09/30 06:52:11;;;;;;;1.30;1.20;;;17.00;99.90;;;;;;5086835;28;20694;-77
2021/09/30 06:54:38;;;;;;;1.35;1.23;;;17.70;99.90;;;;;;5090716;28;20225;-75
2021/09/30 06:57:05;;;;;;;1.52;1.20;;;18.00;99.90;;;;;;5076444;28;20762;-75
2021/09/30 06:59:35;;;;;;;0.80;0.80;;;18.50;99.90;;;;;;5087591;28;20221;-75
2021/09/30 07:02:07;;;;;;;2.67;1.30;;;19.00;99.90;;;;;;5078994;28;20302;-75
2021/09/30 07:04:36;;;;;;;1.67;1.50;;;19.40;99.90;;;;;;5089353;28;20782;-75
2021/09/30 07:07:04;;;;;;;1.23;1.20;;;19.80;99.90;;;;;;5085750;28;20274;-75
2021/09/30 07:09:31;;;;;;;1.48;1.38;;;20.00;99.90;;;;;;5090039;28;20217;-75
2021/09/30 07:11:59;;;;;;;1.40;1.30;;;20.00;99.90;;;;;;5091765;28;20221;-74
2021/09/30 07:14:27;;;;;;;1.20;1.10;;;20.20;99.90;;;;;;5089827;28;20221;-75
2021/09/30 07:16:54;;;;;;;1.20;1.10;;;20.40;99.90;;;;;;5089915;28;20213;-75
2021/09/30 07:19:21;;;;;;;2.22;1.30;;;20.70;99.90;;;;;;5091558;28;20217;-75
2021/09/30 07:21:50;;;;;;;1.08;0.90;;;21.00;99.90;;;;;;5091562;28;20235;-74
2021/09/30 07:24:17;;;;;;;2.15;1.00;;;21.20;99.90;;;;;;5081844;22;20218;-76
2021/09/30 07:26:45;;;;;;;1.17;1.08;;;21.50;99.90;;;;;;5066169;28;20226;-75
2021/09/30 07:29:12;;;;;;;2.20;1.00;;;21.70;99.90;;;;;;5070099;28;20301;-76
2021/09/30 07:31:39;;;;;;;1.52;1.10;;;21.60;99.90;;;;;;5065827;28;20294;-76
2021/09/30 07:34:11;;;;;;;1.55;1.10;;;21.40;99.90;;;;;;5079860;28;20579;-76
2021/09/30 07:36:38;;;;;;;1.20;1.10;;;21.40;99.90;;;;;;5093134;28;20217;-77
2021/09/30 07:39:07;;;;;;;1.20;1.00;;;21.40;99.90;;;;;;5088229;28;20224;-77
2021/09/30 07:41:34;;;;;;;1.60;0.90;;;21.20;99.90;;;;;;5089370;28;20573;-77
2021/09/30 07:44:03;;;;;;;1.65;1.08;;;21.30;99.90;;;;;;5085705;28;20256;-76
2021/09/30 07:46:31;;;;;;;1.25;1.10;;;21.30;99.90;;;;;;5100049;28;20255;-76
2021/09/30 07:48:58;;;;;;;2.33;1.05;;;21.20;99.90;;;;;;5089410;28;20710;-77
2021/09/30 07:51:25;;;;;;;1.23;1.10;;;21.30;99.90;;;;;;5087826;28;20237;-76
2021/09/30 07:53:52;;;;;;;1.45;1.10;;;21.40;99.90;;;;;;5080822;28;20229;-77
2021/09/30 07:56:22;;;;;;;1.27;1.17;;;21.60;99.90;;;;;;5083790;28;20595;-75
2021/09/30 07:58:49;;;;;;;1.25;1.05;;;21.60;99.90;;;;;;5082886;28;20245;-77
2021/09/30 08:01:18;;;;;;;1.48;1.25;;;21.60;99.90;;;;;;5088992;28;20229;-76
2021/09/30 08:03:45;;;;;;;0.93;0.93;;;21.70;99.90;;;;;;5083736;28;20221;-77
2021/09/30 08:06:12;;;;;;;1.52;1.30;;;21.90;99.90;;;;;;5082260;28;20225;-76
2021/09/30 08:08:39;;;;;;;1.75;1.35;;;21.90;99.90;;;;;;5088224;28;20217;-77
2021/09/30 08:11:06;;;;;;;1.48;1.20;;;22.00;99.90;;;;;;5082978;28;20239;-77
2021/09/30 08:13:34;;;;;;;1.33;1.10;;;22.20;99.90;;;;;;5083311;28;20703;-76
2021/09/30 08:16:02;;;;;;;1.65;1.00;;;22.10;99.90;;;;;;5085317;28;20225;-77
2021/09/30 08:18:29;;;;;;;0.82;0.82;;;22.10;99.90;;;;;;5082658;28;20221;-77
2021/09/30 08:20:56;;;;;;;1.38;0.90;;;22.00;99.90;;;;;;5085356;28;20309;-75
2021/09/30 08:23:24;;;;;;;1.02;1.00;;;22.10;99.90;;;;;;5089136;28;20221;-75
2021/09/30 08:25:51;;;;;;;0.70;0.70;;;22.20;99.90;;;;;;5087578;28;20226;-75
2021/09/30 08:28:20;;;;;;;0.93;0.93;;;22.20;99.90;;;;;;5084467;28;20221;-76
2021/09/30 08:30:51;;;;;;;2.25;1.00;;;22.30;99.90;;;;;;5085094;28;20221;-76
2021/09/30 08:33:22;;;;;;;2.60;1.25;;;22.40;99.90;;;;;;5088680;28;20304;-75
2021/09/30 08:35:50;;;;;;;0.80;0.80;;;22.50;99.90;;;;;;5087441;28;20225;-75
2021/09/30 08:38:18;;;;;;;1.60;0.88;;;22.30;99.90;;;;;;5091217;28;20244;-76
2021/09/30 08:40:46;;;;;;;0.77;0.77;;;22.00;99.90;;;;;;5087412;28;20223;-75
2021/09/30 08:43:13;;;;;;;0.95;0.93;;;22.20;99.90;;;;;;5086871;28;20225;-76
2021/09/30 08:45:41;;;;;;;1.42;1.00;;;22.50;99.90;;;;;;5085186;28;20296;-75
2021/09/30 08:48:09;;;;;;;0.88;0.88;;;22.70;99.90;;;;;;5087265;28;20572;-77
2021/09/30 08:50:40;;;;;;;1.00;0.93;;;23.00;99.90;;;;;;5080520;28;20232;-77
2021/09/30 08:53:09;;;;;;;1.70;1.05;;;23.20;99.90;;;;;;5080960;28;20246;-77
2021/09/30 08:55:37;;;;;;;1.75;1.00;;;23.10;99.90;;;;;;5086416;28;20229;-75
2021/09/30 08:58:06;;;;;;;2.35;1.17;;;23.10;99.90;;;;;;5078754;28;20217;-76
2021/09/30 09:00:36;;;;;;;2.38;1.20;;;22.80;99.90;;;;;;5089023;28;20217;-76
2021/09/30 09:03:03;;;;;;;0.70;0.70;;;22.70;99.90;;;;;;5084739;28;20220;-76
2021/09/30 09:05:31;;;;;;;2.17;0.90;;;22.80;99.90;;;;;;5089151;28;20221;-76
2021/09/30 09:07:59;;;;;;;1.10;1.00;;;22.90;99.90;;;;;;5087235;28;20220;-76
2021/09/30 09:10:29;;;;;;;0.80;0.70;;;23.10;99.90;;;;;;5095570;28;20229;-76
2021/09/30 09:13:07;;;;;;;3.08;0.90;;;23.50;99.90;;;;;;5090168;28;20438;-76
2021/09/30 09:15:39;;;;;;;1.15;0.95;;;24.00;99.90;;;;;;5095160;27;20224;-76
2021/09/30 09:18:16;;;;;;;1.38;1.00;;;24.30;99.90;;;;;;5089909;28;20217;-77
2021/09/30 09:20:47;;;;;;;1.05;0.95;;;24.40;99.90;;;;;;5090425;28;20232;-77
2021/09/30 09:23:14;;;;;;;1.77;0.82;;;24.20;99.90;;;;;;5092858;28;20253;-77
2021/09/30 09:25:42;;;;;;;0.73;0.73;;;24.10;99.90;;;;;;5094754;28;20289;-77
2021/09/30 09:28:09;;;;;;;1.02;0.80;;;24.00;99.90;;;;;;5092013;28;20746;-76
2021/09/30 09:30:39;;;;;;;0.90;0.90;;;24.00;99.90;;;;;;5100539;28;20243;-76
2021/09/30 09:33:09;;;;;;;0.65;0.65;;;24.00;99.90;;;;;;5090504;28;20227;-76
2021/09/30 09:35:51;;;;;;;0.75;0.75;;;24.10;99.90;;;;;;5092019;28;20640;-76
2021/09/30 09:38:20;;;;;;;0.68;0.68;;;24.10;99.90;;;;;;5089393;28;20220;-76
2021/09/30 09:40:47;;;;;;;0.85;0.80;;;24.00;99.90;;;;;;5088733;28;20652;-77
2021/09/30 09:43:33;;;;;;;0.70;0.70;;;23.90;99.90;;;;;;5091992;28;20221;-76
2021/09/30 09:46:01;;;;;;;0.60;0.60;;;24.00;99.90;;;;;;5089091;28;20208;-77
2021/09/30 09:48:32;;;;;;;0.60;0.55;;;24.10;99.90;;;;;;5092800;28;20277;-76
2021/09/30 09:51:03;;;;;;;0.63;0.63;;;24.20;99.90;;;;;;5093006;28;20622;-76
2021/09/30 09:53:32;;;;;;;0.63;0.60;;;24.10;99.90;;;;;;5070985;28;20233;-77
2021/09/30 09:56:13;;;;;;;0.70;0.70;;;24.30;99.90;;;;;;5091339;28;20220;-77
2021/09/30 09:58:58;;;;;;;1.85;0.90;;;24.50;99.90;;;;;;5089346;28;20305;-77
2021/09/30 10:01:27;;;;;;;0.85;0.65;;;24.40;99.90;;;;;;5091693;28;20229;-76
2021/09/30 10:03:57;;;;;;;0.60;0.60;;;24.20;99.90;;;;;;5090752;28;20225;-76
2021/09/30 10:06:27;;;;;;;2.05;0.88;;;24.20;99.90;;;;;;5090803;28;20249;-76
2021/09/30 10:08:54;;;;;;;0.80;0.80;;;24.00;99.90;;;;;;5086788;28;20544;-75
2021/09/30 10:11:21;;;;;;;0.60;0.60;;;23.90;99.90;;;;;;5092374;28;20213;-76
2021/09/30 10:13:49;;;;;;;0.60;0.60;;;24.00;99.90;;;;;;5088683;28;20292;-76
2021/09/30 10:16:24;;;;;;;2.58;0.80;;;24.10;99.90;;;;;;5092117;28;20274;-76
2021/09/30 10:18:52;;;;;;;1.48;0.60;;;24.20;99.90;;;;;;5089528;28;20324;-76
2021/09/30 10:21:19;;;;;;;0.93;0.60;;;24.20;99.90;;;;;;5097621;28;20822;-77
2021/09/30 10:23:57;;;;;;;1.10;0.60;;;24.30;99.90;;;;;;5098781;28;20271;-76
2021/09/30 10:26:29;;;;;;;0.77;0.68;;;24.60;99.90;;;;;;5091673;28;20748;-76
2021/09/30 10:28:59;;;;;;;0.60;0.60;;;24.30;99.90;;;;;;5086280;28;20305;-76
2021/09/30 10:31:29;;;;;;;0.57;0.57;;;23.90;99.90;;;;;;5096337;28;20241;-76
2021/09/30 10:33:58;;;;;;;0.65;0.65;;;23.80;99.90;;;;;;5084695;28;20295;-76
2021/09/30 10:36:40;;;;;;;0.70;0.70;;;24.10;99.90;;;;;;5093103;28;20233;-76
2021/09/30 10:39:36;;;;;;;1.00;0.60;;;24.50;99.90;;;;;;5088503;28;20220;-76
2021/09/30 10:42:06;;;;;;;0.70;0.70;;;24.50;99.90;;;;;;5089900;28;20220;-75
2021/09/30 10:44:36;;;;;;;0.73;0.60;;;24.40;99.90;;;;;;5089498;28;20229;-75
2021/09/30 10:47:05;;;;;;;0.52;0.50;;;24.50;99.90;;;;;;5092700;28;20217;-75
2021/09/30 10:49:47;;;;;;;0.73;0.52;;;24.60;99.90;;;;;;5090803;28;20232;-75
2021/09/30 10:52:35;;;;;;;0.60;0.55;;;24.60;99.90;;;;;;5085763;28;20217;-75
2021/09/30 10:55:29;;;;;;;0.50;0.50;;;24.50;99.90;;;;;;5085814;28;20236;-75
2021/09/30 10:57:58;;;;;;;0.60;0.60;;;24.50;99.90;;;;;;5090764;28;20271;-75
2021/09/30 11:00:55;;;;;;;0.40;0.40;;;24.60;99.90;;;;;;5089253;28;20236;-75
2021/09/30 11:03:26;;;;;;;0.50;0.50;;;24.80;99.90;;;;;;5086008;28;20221;-75
2021/09/30 11:06:27;;;;;;;0.50;0.50;;;25.20;99.90;;;;;;5091507;28;20245;-75
2021/09/30 11:09:11;;;;;;;0.50;0.50;;;25.40;99.90;;;;;;5088865;28;20357;-76
2021/09/30 11:11:41;;;;;;;0.47;0.47;;;25.20;99.90;;;;;;5083571;28;20212;-76
2021/09/30 11:14:20;;;;;;;0.30;0.30;;;24.90;99.90;;;;;;5101415;28;20241;-75
2021/09/30 11:16:49;;;;;;;0.40;0.40;;;24.80;99.90;;;;;;5089072;28;20266;-75
2021/09/30 11:19:38;;;;;;;0.47;0.47;;;25.00;99.90;;;;;;5086648;28;20290;-75
2021/09/30 11:22:06;;;;;;;0.60;0.60;;;25.30;99.90;;;;;;5089768;28;20210;-75
2021/09/30 11:24:53;;;;;;;0.50;0.50;;;25.40;99.90;;;;;;5086010;28;20309;-77
2021/09/30 11:27:31;;;;;;;0.50;0.50;;;25.10;99.90;;;;;;5092866;28;20216;-76
2021/09/30 11:30:20;;;;;;;0.52;0.52;;;25.00;99.90;;;;;;5086535;28;20228;-75
2021/09/30 11:32:48;;;;;;;0.45;0.45;;;24.80;99.90;;;;;;5084463;28;20282;-76
2021/09/30 11:35:16;;;;;;;0.57;0.50;;;24.70;99.90;;;;;;5091383;28;20244;-77
2021/09/30 11:37:45;;;;;;;1.30;0.40;;;24.90;99.90;;;;;;5087584;28;20225;-76
2021/09/30 11:40:16;;;;;;;0.40;0.40;;;25.00;99.90;;;;;;5087605;28;21882;-76
2021/09/30 11:42:47;;;;;;;1.65;0.40;;;24.90;99.90;;;;;;5090276;28;20416;-76
2021/09/30 11:45:16;;;;;;;0.40;0.40;;;25.00;99.90;;;;;;5089663;28;20221;-75
2021/09/30 11:47:45;;;;;;;0.50;0.50;;;24.90;99.90;;;;;;5088051;28;20290;-76
2021/09/30 11:50:20;;;;;;;0.40;0.40;;;25.00;99.90;;;;;;5085345;28;20221;-76
2021/09/30 11:52:57;;;;;;;0.22;0.22;;;25.00;99.90;;;;;;5085498;28;20645;-76
2021/09/30 11:55:27;;;;;;;0.60;0.45;;;24.90;99.90;;;;;;5088953;28;20266;-76
2021/09/30 11:57:59;;;;;;;0.30;0.30;;;24.90;99.90;;;;;;5087159;28;20221;-74
2021/09/30 12:00:27;;;;;;;0.52;0.52;;;24.70;99.90;;;;;;5093038;28;20221;-75
2021/09/30 12:03:00;;;;;;;0.68;0.68;;;24.70;99.90;;;;;;5085825;28;20784;-75
2021/09/30 12:05:30;;;;;;;0.55;0.55;;;24.70;99.90;;;;;;5104741;28;20272;-76
2021/09/30 12:07:59;;;;;;;0.57;0.40;;;24.70;99.90;;;;;;5088838;28;20230;-76
2021/09/30 12:10:28;;;;;;;0.50;0.50;;;24.70;99.90;;;;;;5088767;28;20221;-76
2021/09/30 12:12:57;;;;;;;0.55;0.50;;;24.80;99.90;;;;;;5085927;28;20234;-76
2021/09/30 12:15:25;;;;;;;0.40;0.40;;;24.40;99.90;;;;;;5090469;28;20218;-76
2021/09/30 12:17:52;;;;;;;0.50;0.50;;;24.20;99.90;;;;;;5086760;28;20225;-75
2021/09/30 12:20:21;;;;;;;0.50;0.50;;;24.40;99.90;;;;;;5084736;28;20491;-76
2021/09/30 12:22:52;;;;;;;0.40;0.40;;;24.70;99.90;;;;;;5086185;28;20221;-75
2021/09/30 12:25:23;;;;;;;0.55;0.50;;;24.70;99.90;;;;;;5087931;28;20258;-75
2021/09/30 12:27:52;;;;;;;0.60;0.60;;;24.50;99.90;;;;;;5089142;28;20217;-76
2021/09/30 12:30:24;;;;;;;0.70;0.70;;;24.50;99.90;;;;;;5089907;28;20217;-76
2021/09/30 12:32:53;;;;;;;0.65;0.65;;;24.50;99.90;;;;;;5094124;28;20307;-75
2021/09/30 12:35:23;;;;;;;0.55;0.55;;;24.50;99.90;;;;;;5094171;28;20566;-75
2021/09/30 12:37:53;;;;;;;0.40;0.40;;;24.60;99.90;;;;;;5090408;28;20353;-76
2021/09/30 12:40:26;;;;;;;0.45;0.45;;;24.60;99.90;;;;;;5096262;28;20240;-76
2021/09/30 12:42:59;;;;;;;0.45;0.43;;;24.30;99.90;;;;;;5089851;28;20235;-75
2021/09/30 12:45:29;;;;;;;0.77;0.57;;;24.10;99.90;;;;;;5091003;28;20225;-75
2021/09/30 12:48:06;;;;;;;0.75;0.75;;;24.10;99.90;;;;;;5091789;28;20783;-75
2021/09/30 12:50:42;;;;;;;0.95;0.93;;;24.10;99.90;;;;;;5088412;28;20226;-76
2021/09/30 12:53:10;;;;;;;0.70;0.70;;;23.90;99.90;;;;;;5087607;28;20602;-76
2021/09/30 12:55:38;;;;;;;0.70;0.70;;;23.80;99.90;;;;;;5112190;28;20224;-76
2021/09/30 12:58:05;;;;;;;0.65;0.65;;;23.80;99.90;;;;;;5090417;28;20232;-75
2021/09/30 13:00:36;;;;;;;0.60;0.60;;;23.90;99.90;;;;;;5092865;28;20238;-75
2021/09/30 13:03:15;;;;;;;0.80;0.80;;;23.80;99.90;;;;;;5088229;28;20221;-75
2021/09/30 13:05:50;;;;;;;0.60;0.60;;;23.80;99.90;;;;;;5086259;28;20221;-76
2021/09/30 13:08:41;;;;;;;1.20;1.10;;;23.70;99.90;;;;;;5092547;28;20711;-76
2021/09/30 13:11:30;;;;;;;1.30;1.20;;;23.70;99.90;;;;;;5086638;28;20668;-75
2021/09/30 13:14:18;;;;;;;2.28;1.27;;;23.70;99.90;;;;;;5091844;28;21456;-76
2021/09/30 13:16:49;;;;;;;1.08;1.08;;;23.70;99.90;;;;;;5079640;28;20210;-75
2021/09/30 13:19:17;;;;;;;2.17;1.15;;;23.80;99.90;;;;;;5085338;28;20209;-76
2021/09/30 13:22:01;;;;;;;3.72;1.40;;;23.80;99.90;;;;;;5095929;28;20224;-76
2021/09/30 13:24:29;;;;;;;1.40;1.30;;;24.00;99.90;;;;;;5080656;22;20226;-74
2021/09/30 13:26:56;;;;;;;1.42;1.30;;;23.80;99.90;;;;;;5064835;28;20773;-75
2021/09/30 13:29:23;;;;;;;1.00;1.00;;;23.80;99.90;;;;;;5064321;28;20639;-74
2021/09/30 13:31:52;;;;;;;1.40;1.30;;;23.90;99.90;;;;;;5061540;28;20268;-74
2021/09/30 13:34:20;;;;;;;1.30;1.20;;;23.90;99.90;;;;;;5061601;28;20638;-75
2021/09/30 13:36:47;;;;;;;1.73;1.40;;;24.00;99.90;;;;;;5065280;28;20221;-74
2021/09/30 13:39:14;;;;;;;2.00;1.90;;;24.00;99.90;;;;;;5068514;28;20234;-74
2021/09/30 13:41:41;;;;;;;1.50;1.40;;;24.10;99.90;;;;;;5070430;28;20309;-75
2021/09/30 13:44:09;;;;;;;3.47;1.23;;;24.10;99.90;;;;;;5063431;28;20225;-74
2021/09/30 13:46:36;;;;;;;1.20;1.10;;;24.20;99.90;;;;;;5064310;28;20785;-74
2021/09/30 13:49:05;;;;;;;1.40;1.30;;;24.30;99.90;;;;;;5071947;28;20581;-73
2021/09/30 13:51:33;;;;;;;1.58;1.48;;;24.30;99.90;;;;;;5062205;28;20222;-74
2021/09/30 13:54:01;;;;;;;1.80;1.70;;;24.30;99.90;;;;;;5061280;28;20359;-74
2021/09/30 13:56:29;;;;;;;2.65;1.55;;;24.30;99.90;;;;;;5058553;28;20222;-73
2021/09/30 13:58:56;;;;;;;2.03;1.58;;;24.20;99.90;;;;;;5065596;28;20229;-74
2021/09/30 14:01:23;;;;;;;1.40;1.20;;;24.20;99.90;;;;;;5067989;28;20280;-73
2021/09/30 14:03:51;;;;;;;2.17;1.27;;;24.20;99.90;;;;;;5063552;28;20708;-73
2021/09/30 14:06:19;;;;;;;1.65;1.50;;;24.10;99.90;;;;;;5067015;28;20620;-73
2021/09/30 14:08:49;;;;;;;1.38;1.27;;;24.10;99.90;;;;;;5069475;28;20222;-74
2021/09/30 14:11:17;;;;;;;1.85;1.60;;;24.00;99.90;;;;;;5066288;28;20226;-73
2021/09/30 14:13:44;;;;;;;1.50;1.40;;;23.90;99.90;;;;;;5065699;28;20276;-73
2021/09/30 14:16:12;;;;;;;1.83;1.40;;;23.80;99.90;;;;;;5065910;28;20291;-73
2021/09/30 14:18:40;;;;;;;1.38;1.27;;;23.90;99.90;;;;;;5069136;28;20233;-74
2021/09/30 14:21:07;;;;;;;1.88;1.70;;;23.90;99.90;;;;;;5063901;28;20298;-73
2021/09/30 14:23:35;;;;;;;1.65;1.50;;;24.00;99.90;;;;;;5062662;28;20523;-74
2021/09/30 14:26:02;;;;;;;1.55;1.45;;;24.00;99.90;;;;;;5066294;28;20274;-74
2021/09/30 14:28:29;;;;;;;3.35;1.40;;;23.80;99.90;;;;;;5066022;28;20221;-74
2021/09/30 14:30:59;;;;;;;2.00;1.70;;;23.70;99.90;;;;;;5067253;28;20457;-74
2021/09/30 14:33:28;;;;;;;1.92;1.55;;;23.60;99.90;;;;;;5064490;28;20310;-73
2021/09/30 14:35:56;;;;;;;1.70;1.60;;;23.60;99.90;;;;;;5063261;28;20636;-73
2021/09/30 14:38:24;;;;;;;1.60;1.50;;;23.50;99.90;;;;;;5066224;28;20761;-73
2021/09/30 14:40:54;;;;;;;1.60;1.50;;;23.50;99.90;;;;;;5065898;28;20218;-73
2021/09/30 14:43:23;;;;;;;2.10;1.35;;;23.40;99.90;;;;;;5060561;28;20230;-73
2021/09/30 14:45:52;;;;;;;2.08;1.67;;;23.20;99.90;;;;;;5068422;28;20601;-73
2021/09/30 14:48:19;;;;;;;1.45;1.35;;;23.10;99.90;;;;;;5057671;28;20214;-73
2021/09/30 14:50:46;;;;;;;1.50;1.40;;;23.00;99.90;;;;;;5064799;28;20249;-74
2021/09/30 14:53:14;;;;;;;1.52;1.35;;;23.00;99.90;;;;;;5067803;28;20221;-72
2021/09/30 14:55:41;;;;;;;1.63;1.52;;;22.80;99.90;;;;;;5068013;28;20225;-73
2021/09/30 14:58:09;;;;;;;3.42;2.00;;;22.80;99.90;;;;;;5062845;28;20226;-73
2021/09/30 15:00:36;;;;;;;1.77;1.67;;;22.80;99.90;;;;;;5071271;28;20233;-75
2021/09/30 15:03:05;;;;;;;1.40;1.30;;;22.60;99.90;;;;;;5064984;28;20224;-74
2021/09/30 15:05:34;;;;;;;1.70;1.60;;;22.60;99.90;;;;;;5067309;28;20218;-74
2021/09/30 15:08:01;;;;;;;2.28;1.80;;;22.20;99.90;;;;;;5047358;28;20217;-74
2021/09/30 15:10:29;;;;;;;1.50;1.40;;;21.90;99.90;;;;;;5075175;28;20256;-74
2021/09/30 15:12:56;;;;;;;2.10;1.90;;;21.60;99.90;;;;;;5070856;28;20301;-74
2021/09/30 15:15:26;;;;;;;2.75;1.50;;;21.50;99.90;;;;;;5071931;28;20214;-74
2021/09/30 15:17:56;;;;;;;1.67;1.58;;;21.50;99.90;;;;;;5068064;28;20599;-72
2021/09/30 15:23:23;;;;;;;2.25;1.70;;;21.40;99.90;;;;;;5007566;28;20277;-74
2021/09/30 15:25:50;;;;;;;1.70;1.60;;;21.30;99.90;;;;;;5009837;28;20223;-75
2021/09/30 15:28:18;;;;;;;2.00;1.80;;;21.30;99.90;;;;;;5031068;28;20229;-74
2021/09/30 15:30:47;;;;;;;2.60;1.63;;;21.20;99.90;;;;;;5063834;28;20703;-73
2021/09/30 15:33:15;;;;;;;2.97;1.95;;;21.20;99.90;;;;;;5070029;28;20221;-72
2021/09/30 15:35:43;;;;;;;2.00;1.45;;;21.10;99.90;;;;;;5068606;28;20307;-74
2021/09/30 15:38:11;;;;;;;1.75;1.65;;;21.00;99.90;;;;;;5068337;28;20253;-74